sensor_id;sensor_type;location;lat;lon;timestamp;temperature;humidity
13928;DHT22;7036;50.834;4.718;2024-03-23T00:55:54;19.50;65.60
13928;DHT22;7036;50.834;4.718;2024-03-23T00:58:21;19.50;64.90
13928;DHT22;7036;50.834;4.718;2024-03-23T01:00:48;19.50;64.90
13928;DHT22;7036;50.834;4.718;2024-03-23T01:03:16;19.50;65.60
13928;DHT22;7036;50.834;4.718;2024-03-23T01:05:44;19.50;65.50
13928;DHT22;7036;50.834;4.718;2024-03-23T01:08:12;19.50;65.50
13928;DHT22;7036;50.834;4.718;2024-03-23T01:10:40;19.50;65.50
13928;DHT22;7036;50.834;4.718;2024-03-23T01:13:08;19.50;65.50
13928;DHT22;7036;50.834;4.718;2024-03-23T01:15:35;19.50;64.80
13928;DHT22;7036;50.834;4.718;2024-03-23T01:18:03;19.50;64.70
13928;DHT22;7036;50.834;4.718;2024-03-23T01:20:31;19.50;65.50
13928;DHT22;7036;50.834;4.718;2024-03-23T01:22:59;19.50;65.40
13928;DHT22;7036;50.834;4.718;2024-03-23T01:25:27;19.40;65.30
13928;DHT22;7036;50.834;4.718;2024-03-23T01:27:55;19.40;65.30
13928;DHT22;7036;50.834;4.718;2024-03-23T01:30:23;19.40;65.30
13928;DHT22;7036;50.834;4.718;2024-03-23T01:32:50;19.40;65.30
13928;DHT22;7036;50.834;4.718;2024-03-23T01:35:18;19.40;65.30
13928;DHT22;7036;50.834;4.718;2024-03-23T01:37:46;19.40;65.30
13928;DHT22;7036;50.834;4.718;2024-03-23T01:40:16;19.40;65.30
13928;DHT22;7036;50.834;4.718;2024-03-23T01:42:42;19.40;65.30
13928;DHT22;7036;50.834;4.718;2024-03-23T01:45:14;19.40;64.50
13928;DHT22;7036;50.834;4.718;2024-03-23T01:47:41;19.40;65.30
13928;DHT22;7036;50.834;4.718;2024-03-23T01:50:09;19.40;65.30
13928;DHT22;7036;50.834;4.718;2024-03-23T01:52:35;19.30;64.50
13928;DHT22;7036;50.834;4.718;2024-03-23T01:55:03;19.30;65.20
13928;DHT22;7036;50.834;4.718;2024-03-23T01:57:31;19.30;65.20
13928;DHT22;7036;50.834;4.718;2024-03-23T01:59:58;19.30;64.40
13928;DHT22;7036;50.834;4.718;2024-03-23T02:02:25;19.30;65.20
13928;DHT22;7036;50.834;4.718;2024-03-23T02:04:53;19.30;64.40
13928;DHT22;7036;50.834;4.718;2024-03-23T02:07:21;19.30;65.20
13928;DHT22;7036;50.834;4.718;2024-03-23T02:09:49;19.30;65.20
13928;DHT22;7036;50.834;4.718;2024-03-23T02:12:17;19.30;65.10
13928;DHT22;7036;50.834;4.718;2024-03-23T02:14:44;19.30;64.40
13928;DHT22;7036;50.834;4.718;2024-03-23T02:17:11;19.30;64.30
13928;DHT22;7036;50.834;4.718;2024-03-23T02:19:39;19.30;65.10
13928;DHT22;7036;50.834;4.718;2024-03-23T02:22:07;19.30;65.10
13928;DHT22;7036;50.834;4.718;2024-03-23T02:24:35;19.30;65.10
13928;DHT22;7036;50.834;4.718;2024-03-23T02:27:03;19.30;65.10
13928;DHT22;7036;50.834;4.718;2024-03-23T02:29:30;19.20;64.30
13928;DHT22;7036;50.834;4.718;2024-03-23T02:31:58;19.30;65.00
13928;DHT22;7036;50.834;4.718;2024-03-23T02:34:26;19.30;64.90
13928;DHT22;7036;50.834;4.718;2024-03-23T02:36:54;19.20;64.90
13928;DHT22;7036;50.834;4.718;2024-03-23T02:39:22;19.20;65.00
13928;DHT22;7036;50.834;4.718;2024-03-23T02:41:49;19.20;64.20
13928;DHT22;7036;50.834;4.718;2024-03-23T02:44:16;19.20;63.40
13928;DHT22;7036;50.834;4.718;2024-03-23T02:46:44;19.20;64.90
13928;DHT22;7036;50.834;4.718;2024-03-23T02:49:12;19.20;64.10
13928;DHT22;7036;50.834;4.718;2024-03-23T02:51:39;19.20;64.10
13928;DHT22;7036;50.834;4.718;2024-03-23T02:54:06;19.20;64.10
13928;DHT22;7036;50.834;4.718;2024-03-23T02:56:34;19.20;64.90
13928;DHT22;7036;50.834;4.718;2024-03-23T02:59:02;19.20;64.80
13928;DHT22;7036;50.834;4.718;2024-03-23T03:01:30;19.20;64.80
13928;DHT22;7036;50.834;4.718;2024-03-23T03:03:58;19.20;64.80
13928;DHT22;7036;50.834;4.718;2024-03-23T03:06:26;19.20;64.80
13928;DHT22;7036;50.834;4.718;2024-03-23T03:08:54;19.20;64.80
13928;DHT22;7036;50.834;4.718;2024-03-23T03:11:22;19.20;64.90
13928;DHT22;7036;50.834;4.718;2024-03-23T03:13:49;19.20;64.00
13928;DHT22;7036;50.834;4.718;2024-03-23T03:16:17;19.20;64.70
13928;DHT22;7036;50.834;4.718;2024-03-23T03:18:44;19.10;63.90
13928;DHT22;7036;50.834;4.718;2024-03-23T03:21:12;19.10;64.60
13928;DHT22;7036;50.834;4.718;2024-03-23T03:23:39;19.10;63.90
13928;DHT22;7036;50.834;4.718;2024-03-23T03:26:06;19.10;63.90
13928;DHT22;7036;50.834;4.718;2024-03-23T03:28:34;19.10;64.70
13928;DHT22;7036;50.834;4.718;2024-03-23T03:31:03;19.10;64.60
13928;DHT22;7036;50.834;4.718;2024-03-23T03:33:30;19.10;63.90
13928;DHT22;7036;50.834;4.718;2024-03-23T03:35:58;19.10;64.70
13928;DHT22;7036;50.834;4.718;2024-03-23T03:38:26;19.10;64.60
13928;DHT22;7036;50.834;4.718;2024-03-23T03:40:54;19.10;64.70
13928;DHT22;7036;50.834;4.718;2024-03-23T03:43:21;19.00;63.90
13928;DHT22;7036;50.834;4.718;2024-03-23T03:45:52;19.10;64.70
13928;DHT22;7036;50.834;4.718;2024-03-23T03:48:19;19.00;63.90
13928;DHT22;7036;50.834;4.718;2024-03-23T03:50:47;19.10;64.70
13928;DHT22;7036;50.834;4.718;2024-03-23T03:53:14;19.10;64.60
13928;DHT22;7036;50.834;4.718;2024-03-23T03:55:42;19.10;64.60
13928;DHT22;7036;50.834;4.718;2024-03-23T03:58:10;19.10;64.60
13928;DHT22;7036;50.834;4.718;2024-03-23T04:00:38;19.10;64.60
13928;DHT22;7036;50.834;4.718;2024-03-23T04:03:06;19.00;64.60
13928;DHT22;7036;50.834;4.718;2024-03-23T04:05:34;19.00;64.60
13928;DHT22;7036;50.834;4.718;2024-03-23T04:08:01;19.00;63.80
13928;DHT22;7036;50.834;4.718;2024-03-23T04:10:29;19.00;63.10
13928;DHT22;7036;50.834;4.718;2024-03-23T04:12:57;19.00;64.60
13928;DHT22;7036;50.834;4.718;2024-03-23T04:15:24;19.00;63.80
13928;DHT22;7036;50.834;4.718;2024-03-23T04:17:51;19.00;63.10
13928;DHT22;7036;50.834;4.718;2024-03-23T04:20:19;19.00;63.80
13928;DHT22;7036;50.834;4.718;2024-03-23T04:22:46;19.00;64.60
13928;DHT22;7036;50.834;4.718;2024-03-23T04:25:14;18.90;64.50
13928;DHT22;7036;50.834;4.718;2024-03-23T04:27:42;19.00;64.60
13928;DHT22;7036;50.834;4.718;2024-03-23T04:30:11;19.00;64.60
13928;DHT22;7036;50.834;4.718;2024-03-23T04:32:38;19.00;64.60
13928;DHT22;7036;50.834;4.718;2024-03-23T04:35:05;18.90;63.90
13928;DHT22;7036;50.834;4.718;2024-03-23T04:37:33;18.90;64.50
13928;DHT22;7036;50.834;4.718;2024-03-23T04:40:01;18.90;64.40
13928;DHT22;7036;50.834;4.718;2024-03-23T04:42:31;18.90;64.40
13928;DHT22;7036;50.834;4.718;2024-03-23T04:44:57;18.90;63.80
13928;DHT22;7036;50.834;4.718;2024-03-23T04:47:25;18.90;64.40
13928;DHT22;7036;50.834;4.718;2024-03-23T04:49:52;18.90;63.70
13928;DHT22;7036;50.834;4.718;2024-03-23T04:52:20;18.90;64.40
13928;DHT22;7036;50.834;4.718;2024-03-23T04:54:48;18.90;64.40
13928;DHT22;7036;50.834;4.718;2024-03-23T04:57:16;18.90;63.70
13928;DHT22;7036;50.834;4.718;2024-03-23T04:59:43;18.90;63.70
13928;DHT22;7036;50.834;4.718;2024-03-23T05:02:10;18.90;63.60
13928;DHT22;7036;50.834;4.718;2024-03-23T05:04:38;18.90;64.30
13928;DHT22;7036;50.834;4.718;2024-03-23T05:07:06;18.90;64.20
13928;DHT22;7036;50.834;4.718;2024-03-23T05:09:34;18.90;64.20
13928;DHT22;7036;50.834;4.718;2024-03-23T05:12:02;18.90;64.20
13928;DHT22;7036;50.834;4.718;2024-03-23T05:14:30;18.80;64.20
13928;DHT22;7036;50.834;4.718;2024-03-23T05:16:58;18.80;64.20
13928;DHT22;7036;50.834;4.718;2024-03-23T05:19:26;18.90;64.20
13928;DHT22;7036;50.834;4.718;2024-03-23T05:21:53;18.90;63.50
13928;DHT22;7036;50.834;4.718;2024-03-23T05:24:21;18.80;64.10
13928;DHT22;7036;50.834;4.718;2024-03-23T05:26:48;18.80;63.50
13928;DHT22;7036;50.834;4.718;2024-03-23T05:29:16;18.80;64.20
13928;DHT22;7036;50.834;4.718;2024-03-23T05:31:44;18.80;64.10
13928;DHT22;7036;50.834;4.718;2024-03-23T05:34:12;18.80;64.10
13928;DHT22;7036;50.834;4.718;2024-03-23T05:36:40;18.80;64.10
13928;DHT22;7036;50.834;4.718;2024-03-23T05:39:08;18.80;64.10
13928;DHT22;7036;50.834;4.718;2024-03-23T05:41:36;18.80;64.00
13928;DHT22;7036;50.834;4.718;2024-03-23T05:44:03;18.80;63.40
13928;DHT22;7036;50.834;4.718;2024-03-23T05:46:31;18.80;64.10
13928;DHT22;7036;50.834;4.718;2024-03-23T05:49:00;18.80;64.00
13928;DHT22;7036;50.834;4.718;2024-03-23T05:51:27;18.80;64.00
13928;DHT22;7036;50.834;4.718;2024-03-23T05:53:55;18.80;64.00
13928;DHT22;7036;50.834;4.718;2024-03-23T05:56:23;18.80;64.00
13928;DHT22;7036;50.834;4.718;2024-03-23T05:58:51;18.80;64.00
13928;DHT22;7036;50.834;4.718;2024-03-23T06:01:19;18.80;63.90
13928;DHT22;7036;50.834;4.718;2024-03-23T06:03:47;18.80;63.90
13928;DHT22;7036;50.834;4.718;2024-03-23T06:06:15;18.80;63.90
13928;DHT22;7036;50.834;4.718;2024-03-23T06:08:43;18.80;63.90
13928;DHT22;7036;50.834;4.718;2024-03-23T06:11:11;18.70;63.80
13928;DHT22;7036;50.834;4.718;2024-03-23T06:13:38;18.70;63.10
13928;DHT22;7036;50.834;4.718;2024-03-23T06:16:07;18.70;63.80
13928;DHT22;7036;50.834;4.718;2024-03-23T06:18:35;18.70;63.80
13928;DHT22;7036;50.834;4.718;2024-03-23T06:21:02;18.70;63.10
13928;DHT22;7036;50.834;4.718;2024-03-23T06:23:30;18.70;63.00
13928;DHT22;7036;50.834;4.718;2024-03-23T06:25:58;18.70;63.70
13928;DHT22;7036;50.834;4.718;2024-03-23T06:28:26;18.70;63.60
13928;DHT22;7036;50.834;4.718;2024-03-23T06:30:54;18.70;63.70
13928;DHT22;7036;50.834;4.718;2024-03-23T06:33:22;18.70;63.70
13928;DHT22;7036;50.834;4.718;2024-03-23T06:35:54;18.70;63.60
13928;DHT22;7036;50.834;4.718;2024-03-23T06:38:21;18.70;62.90
13928;DHT22;7036;50.834;4.718;2024-03-23T06:40:49;18.70;63.70
13928;DHT22;7036;50.834;4.718;2024-03-23T06:43:16;18.70;62.90
13928;DHT22;7036;50.834;4.718;2024-03-23T06:45:44;18.70;63.60
13928;DHT22;7036;50.834;4.718;2024-03-23T06:48:12;18.70;63.60
13928;DHT22;7036;50.834;4.718;2024-03-23T06:50:40;18.70;63.60
13928;DHT22;7036;50.834;4.718;2024-03-23T06:53:08;18.70;63.50
13928;DHT22;7036;50.834;4.718;2024-03-23T06:55:36;18.70;63.60
13928;DHT22;7036;50.834;4.718;2024-03-23T06:58:04;18.70;63.60
13928;DHT22;7036;50.834;4.718;2024-03-23T07:00:32;18.70;63.60
13928;DHT22;7036;50.834;4.718;2024-03-23T07:03:01;18.70;63.60
13928;DHT22;7036;50.834;4.718;2024-03-23T07:05:28;18.70;62.90
13928;DHT22;7036;50.834;4.718;2024-03-23T07:07:57;18.70;63.60
13928;DHT22;7036;50.834;4.718;2024-03-23T07:10:23;18.70;62.90
13928;DHT22;7036;50.834;4.718;2024-03-23T07:12:50;18.70;62.90
13928;DHT22;7036;50.834;4.718;2024-03-23T07:15:18;18.70;62.90
13928;DHT22;7036;50.834;4.718;2024-03-23T07:17:49;18.70;63.60
13928;DHT22;7036;50.834;4.718;2024-03-23T07:20:16;18.70;62.80
13928;DHT22;7036;50.834;4.718;2024-03-23T07:22:45;18.70;62.80
13928;DHT22;7036;50.834;4.718;2024-03-23T07:25:10;18.70;62.90
13928;DHT22;7036;50.834;4.718;2024-03-23T07:27:38;18.70;63.60
13928;DHT22;7036;50.834;4.718;2024-03-23T07:30:07;18.70;62.80
13928;DHT22;7036;50.834;4.718;2024-03-23T07:32:34;18.70;62.80
13928;DHT22;7036;50.834;4.718;2024-03-23T07:35:04;18.70;63.60
13928;DHT22;7036;50.834;4.718;2024-03-23T07:37:31;18.70;63.50
13928;DHT22;7036;50.834;4.718;2024-03-23T07:39:58;18.70;62.80
13928;DHT22;7036;50.834;4.718;2024-03-23T07:42:26;18.60;63.50
13928;DHT22;7036;50.834;4.718;2024-03-23T07:44:52;18.70;62.80
13928;DHT22;7036;50.834;4.718;2024-03-23T07:47:20;18.60;62.70
13928;DHT22;7036;50.834;4.718;2024-03-23T07:49:47;18.60;62.70
13928;DHT22;7036;50.834;4.718;2024-03-23T07:52:15;18.60;63.50
13928;DHT22;7036;50.834;4.718;2024-03-23T07:54:43;18.60;63.30
13928;DHT22;7036;50.834;4.718;2024-03-23T07:57:11;18.70;63.40
13928;DHT22;7036;50.834;4.718;2024-03-23T07:59:39;18.70;63.60
13928;DHT22;7036;50.834;4.718;2024-03-23T08:02:07;18.80;63.70
13928;DHT22;7036;50.834;4.718;2024-03-23T08:04:34;18.80;62.90
13928;DHT22;7036;50.834;4.718;2024-03-23T08:07:02;18.90;63.80
13928;DHT22;7036;50.834;4.718;2024-03-23T08:09:30;18.90;63.80
13928;DHT22;7036;50.834;4.718;2024-03-23T08:11:58;19.00;63.80
13928;DHT22;7036;50.834;4.718;2024-03-23T08:14:25;18.90;63.00
13928;DHT22;7036;50.834;4.718;2024-03-23T08:16:54;19.00;63.10
13928;DHT22;7036;50.834;4.718;2024-03-23T08:19:20;19.10;63.80
13928;DHT22;7036;50.834;4.718;2024-03-23T08:21:48;19.10;63.70
13928;DHT22;7036;50.834;4.718;2024-03-23T08:24:16;19.10;63.70
13928;DHT22;7036;50.834;4.718;2024-03-23T08:26:44;19.10;63.00
13928;DHT22;7036;50.834;4.718;2024-03-23T08:29:12;19.20;63.70
13928;DHT22;7036;50.834;4.718;2024-03-23T08:31:40;19.10;63.50
13928;DHT22;7036;50.834;4.718;2024-03-23T08:34:08;19.20;63.60
13928;DHT22;7036;50.834;4.718;2024-03-23T08:36:35;19.20;63.60
13928;DHT22;7036;50.834;4.718;2024-03-23T08:39:03;19.20;63.50
13928;DHT22;7036;50.834;4.718;2024-03-23T08:41:31;19.10;62.80
13928;DHT22;7036;50.834;4.718;2024-03-23T08:43:58;19.20;62.70
13928;DHT22;7036;50.834;4.718;2024-03-23T08:46:26;19.20;63.10
13928;DHT22;7036;50.834;4.718;2024-03-23T08:48:54;19.20;63.20
13928;DHT22;7036;50.834;4.718;2024-03-23T08:51:22;19.20;63.00
13928;DHT22;7036;50.834;4.718;2024-03-23T08:53:50;19.30;63.30
13928;DHT22;7036;50.834;4.718;2024-03-23T08:56:18;19.30;63.80
13928;DHT22;7036;50.834;4.718;2024-03-23T08:58:45;19.30;63.10
13928;DHT22;7036;50.834;4.718;2024-03-23T09:01:12;19.30;62.80
13928;DHT22;7036;50.834;4.718;2024-03-23T09:03:42;19.30;63.30
13928;DHT22;7036;50.834;4.718;2024-03-23T09:06:14;19.40;64.50
13928;DHT22;7036;50.834;4.718;2024-03-23T09:08:39;19.30;63.60
13928;DHT22;7036;50.834;4.718;2024-03-23T09:11:07;19.40;63.70
13928;DHT22;7036;50.834;4.718;2024-03-23T09:13:34;19.40;63.50
13928;DHT22;7036;50.834;4.718;2024-03-23T09:16:01;19.40;63.50
13928;DHT22;7036;50.834;4.718;2024-03-23T09:18:31;19.40;62.90
13928;DHT22;7036;50.834;4.718;2024-03-23T09:20:55;19.40;63.50
13928;DHT22;7036;50.834;4.718;2024-03-23T09:23:23;19.40;64.20
13928;DHT22;7036;50.834;4.718;2024-03-23T09:25:51;19.40;64.10
13928;DHT22;7036;50.834;4.718;2024-03-23T09:28:21;19.40;64.00
13928;DHT22;7036;50.834;4.718;2024-03-23T09:30:49;19.40;63.30
13928;DHT22;7036;50.834;4.718;2024-03-23T09:33:16;19.40;63.20
13928;DHT22;7036;50.834;4.718;2024-03-23T09:35:44;19.40;63.80
13928;DHT22;7036;50.834;4.718;2024-03-23T09:38:12;19.40;63.60
13928;DHT22;7036;50.834;4.718;2024-03-23T09:40:43;19.40;63.70
13928;DHT22;7036;50.834;4.718;2024-03-23T09:43:09;19.30;62.80
13928;DHT22;7036;50.834;4.718;2024-03-23T09:45:39;19.40;63.50
13928;DHT22;7036;50.834;4.718;2024-03-23T09:48:06;19.30;62.70
13928;DHT22;7036;50.834;4.718;2024-03-23T09:50:33;19.30;62.70
13928;DHT22;7036;50.834;4.718;2024-03-23T09:53:01;19.30;63.40
13928;DHT22;7036;50.834;4.718;2024-03-23T09:55:29;19.30;63.40
13928;DHT22;7036;50.834;4.718;2024-03-23T09:57:57;19.30;63.30
13928;DHT22;7036;50.834;4.718;2024-03-23T10:00:23;19.30;62.60
13928;DHT22;7036;50.834;4.718;2024-03-23T10:02:51;19.30;63.10
13928;DHT22;7036;50.834;4.718;2024-03-23T10:05:23;19.30;63.10
13928;DHT22;7036;50.834;4.718;2024-03-23T10:07:52;19.30;62.40
13928;DHT22;7036;50.834;4.718;2024-03-23T10:10:19;19.30;62.30
13928;DHT22;7036;50.834;4.718;2024-03-23T10:12:50;19.30;62.90
13928;DHT22;7036;50.834;4.718;2024-03-23T10:15:20;19.30;62.20
13928;DHT22;7036;50.834;4.718;2024-03-23T10:17:46;19.30;62.10
13928;DHT22;7036;50.834;4.718;2024-03-23T10:20:21;19.30;62.80
13928;DHT22;7036;50.834;4.718;2024-03-23T10:22:48;19.30;63.40
13928;DHT22;7036;50.834;4.718;2024-03-23T10:25:14;19.30;62.10
13928;DHT22;7036;50.834;4.718;2024-03-23T10:27:42;19.30;62.60
13928;DHT22;7036;50.834;4.718;2024-03-23T10:30:11;19.30;62.60
13928;DHT22;7036;50.834;4.718;2024-03-23T10:32:38;19.30;62.50
13928;DHT22;7036;50.834;4.718;2024-03-23T10:35:21;19.30;62.40
13928;DHT22;7036;50.834;4.718;2024-03-23T10:37:51;19.30;61.70
13928;DHT22;7036;50.834;4.718;2024-03-23T10:40:18;19.30;62.30
13928;DHT22;7036;50.834;4.718;2024-03-23T10:42:46;19.30;62.30
13928;DHT22;7036;50.834;4.718;2024-03-23T10:45:14;19.30;62.10
13928;DHT22;7036;50.834;4.718;2024-03-23T10:47:42;19.30;62.10
13928;DHT22;7036;50.834;4.718;2024-03-23T10:50:10;19.30;62.00
13928;DHT22;7036;50.834;4.718;2024-03-23T10:52:38;19.30;62.00
13928;DHT22;7036;50.834;4.718;2024-03-23T10:55:06;19.30;62.00
13928;DHT22;7036;50.834;4.718;2024-03-23T10:57:45;19.30;61.30
13928;DHT22;7036;50.834;4.718;2024-03-23T11:00:09;19.30;61.10
13928;DHT22;7036;50.834;4.718;2024-03-23T11:02:36;19.30;61.20
13928;DHT22;7036;50.834;4.718;2024-03-23T11:07:53;19.30;61.00
13928;DHT22;7036;50.834;4.718;2024-03-23T11:10:30;19.30;61.00
13928;DHT22;7036;50.834;4.718;2024-03-23T11:12:58;19.30;60.90
13928;DHT22;7036;50.834;4.718;2024-03-23T11:15:25;19.30;60.80
13928;DHT22;7036;50.834;4.718;2024-03-23T11:18:02;19.30;61.50
13928;DHT22;7036;50.834;4.718;2024-03-23T11:20:31;19.30;60.70
13928;DHT22;7036;50.834;4.718;2024-03-23T11:22:58;19.30;60.70
13928;DHT22;7036;50.834;4.718;2024-03-23T11:25:26;19.30;61.40
13928;DHT22;7036;50.834;4.718;2024-03-23T11:27:57;19.30;61.30
13928;DHT22;7036;50.834;4.718;2024-03-23T11:30:27;19.30;60.60
13928;DHT22;7036;50.834;4.718;2024-03-23T11:32:57;19.30;60.50
13928;DHT22;7036;50.834;4.718;2024-03-23T11:35:32;19.30;60.50
13928;DHT22;7036;50.834;4.718;2024-03-23T11:38:08;19.30;60.40
13928;DHT22;7036;50.834;4.718;2024-03-23T11:40:41;19.30;61.20
13928;DHT22;7036;50.834;4.718;2024-03-23T11:43:11;19.30;60.40
13928;DHT22;7036;50.834;4.718;2024-03-23T11:45:38;19.30;60.30
13928;DHT22;7036;50.834;4.718;2024-03-23T11:48:13;19.30;60.30
13928;DHT22;7036;50.834;4.718;2024-03-23T11:50:41;19.30;61.00
13928;DHT22;7036;50.834;4.718;2024-03-23T11:53:08;19.30;60.10
13928;DHT22;7036;50.834;4.718;2024-03-23T11:55:50;19.30;60.80
13928;DHT22;7036;50.834;4.718;2024-03-23T11:58:19;19.30;60.60
13928;DHT22;7036;50.834;4.718;2024-03-23T12:03:18;19.30;60.50
13928;DHT22;7036;50.834;4.718;2024-03-23T12:05:54;19.30;59.80
13928;DHT22;7036;50.834;4.718;2024-03-23T12:08:24;19.30;60.40
13928;DHT22;7036;50.834;4.718;2024-03-23T12:11:04;19.30;59.70
13928;DHT22;7036;50.834;4.718;2024-03-23T12:13:21;19.30;59.00
13928;DHT22;7036;50.834;4.718;2024-03-23T12:15:49;19.30;60.40
13928;DHT22;7036;50.834;4.718;2024-03-23T12:18:16;19.30;60.40
13928;DHT22;7036;50.834;4.718;2024-03-23T12:20:44;19.30;60.30
13928;DHT22;7036;50.834;4.718;2024-03-23T12:23:12;19.30;60.20
13928;DHT22;7036;50.834;4.718;2024-03-23T12:25:41;19.30;60.10
13928;DHT22;7036;50.834;4.718;2024-03-23T12:28:07;19.30;59.50
13928;DHT22;7036;50.834;4.718;2024-03-23T12:30:37;19.30;60.00
13928;DHT22;7036;50.834;4.718;2024-03-23T12:33:03;19.30;59.60
13928;DHT22;7036;50.834;4.718;2024-03-23T12:35:31;19.30;59.00
13928;DHT22;7036;50.834;4.718;2024-03-23T12:37:58;19.30;58.90
13928;DHT22;7036;50.834;4.718;2024-03-23T12:40:26;19.30;59.40
13928;DHT22;7036;50.834;4.718;2024-03-23T12:42:53;19.30;58.80
13928;DHT22;7036;50.834;4.718;2024-03-23T12:45:20;19.30;58.10
13928;DHT22;7036;50.834;4.718;2024-03-23T12:47:48;19.30;59.40
13928;DHT22;7036;50.834;4.718;2024-03-23T12:50:15;19.30;58.80
13928;DHT22;7036;50.834;4.718;2024-03-23T12:52:43;19.30;59.50
13928;DHT22;7036;50.834;4.718;2024-03-23T12:55:11;19.30;59.40
13928;DHT22;7036;50.834;4.718;2024-03-23T12:57:39;19.30;59.50
13928;DHT22;7036;50.834;4.718;2024-03-23T13:00:07;19.30;59.50
13928;DHT22;7036;50.834;4.718;2024-03-23T13:02:35;19.30;59.40
13928;DHT22;7036;50.834;4.718;2024-03-23T13:05:01;19.20;58.70
13928;DHT22;7036;50.834;4.718;2024-03-23T13:07:29;19.20;58.70
13928;DHT22;7036;50.834;4.718;2024-03-23T13:09:57;19.20;59.40
13928;DHT22;7036;50.834;4.718;2024-03-23T13:12:25;19.20;59.30
13928;DHT22;7036;50.834;4.718;2024-03-23T13:14:53;19.20;59.30
13928;DHT22;7036;50.834;4.718;2024-03-23T13:17:20;19.20;59.50
13928;DHT22;7036;50.834;4.718;2024-03-23T13:19:48;19.20;59.30
13928;DHT22;7036;50.834;4.718;2024-03-23T13:22:16;19.20;58.70
13928;DHT22;7036;50.834;4.718;2024-03-23T13:24:43;19.20;58.10
13928;DHT22;7036;50.834;4.718;2024-03-23T13:27:10;19.20;58.80
13928;DHT22;7036;50.834;4.718;2024-03-23T13:29:38;19.20;59.40
13928;DHT22;7036;50.834;4.718;2024-03-23T13:32:06;19.20;59.50
13928;DHT22;7036;50.834;4.718;2024-03-23T13:34:34;19.20;59.50
13928;DHT22;7036;50.834;4.718;2024-03-23T13:37:01;19.20;58.80
13928;DHT22;7036;50.834;4.718;2024-03-23T13:39:30;19.20;59.40
13928;DHT22;7036;50.834;4.718;2024-03-23T13:41:57;19.20;59.30
13928;DHT22;7036;50.834;4.718;2024-03-23T13:44:24;19.20;58.70
13928;DHT22;7036;50.834;4.718;2024-03-23T13:46:52;19.20;59.30
13928;DHT22;7036;50.834;4.718;2024-03-23T13:49:29;19.20;58.70
13928;DHT22;7036;50.834;4.718;2024-03-23T13:51:56;19.20;58.60
13928;DHT22;7036;50.834;4.718;2024-03-23T13:54:27;19.30;59.30
13928;DHT22;7036;50.834;4.718;2024-03-23T13:56:52;19.20;59.30
13928;DHT22;7036;50.834;4.718;2024-03-23T13:59:20;19.20;59.10
13928;DHT22;7036;50.834;4.718;2024-03-23T14:01:47;19.20;59.20
13928;DHT22;7036;50.834;4.718;2024-03-23T14:04:15;19.20;59.00
13928;DHT22;7036;50.834;4.718;2024-03-23T14:06:49;19.20;59.40
13928;DHT22;7036;50.834;4.718;2024-03-23T14:09:15;19.20;58.40
13928;DHT22;7036;50.834;4.718;2024-03-23T14:11:42;19.20;58.50
13928;DHT22;7036;50.834;4.718;2024-03-23T14:14:10;19.20;57.80
13928;DHT22;7036;50.834;4.718;2024-03-23T14:16:37;19.20;58.50
13928;DHT22;7036;50.834;4.718;2024-03-23T14:19:04;19.20;58.40
13928;DHT22;7036;50.834;4.718;2024-03-23T14:21:34;19.20;59.00
13928;DHT22;7036;50.834;4.718;2024-03-23T14:24:01;19.20;58.40
13928;DHT22;7036;50.834;4.718;2024-03-23T14:26:28;19.20;58.30
13928;DHT22;7036;50.834;4.718;2024-03-23T14:28:56;19.20;58.90
13928;DHT22;7036;50.834;4.718;2024-03-23T14:31:24;19.20;59.00
13928;DHT22;7036;50.834;4.718;2024-03-23T14:33:52;19.20;58.90
13928;DHT22;7036;50.834;4.718;2024-03-23T14:36:21;19.20;58.90
13928;DHT22;7036;50.834;4.718;2024-03-23T14:38:48;19.20;58.20
13928;DHT22;7036;50.834;4.718;2024-03-23T14:41:15;19.20;58.80
13928;DHT22;7036;50.834;4.718;2024-03-23T14:43:43;19.20;58.20
13928;DHT22;7036;50.834;4.718;2024-03-23T14:46:14;19.20;58.60
13928;DHT22;7036;50.834;4.718;2024-03-23T14:48:41;19.20;57.90
13928;DHT22;7036;50.834;4.718;2024-03-23T14:51:08;19.20;58.00
13928;DHT22;7036;50.834;4.718;2024-03-23T14:53:36;19.20;57.80
13928;DHT22;7036;50.834;4.718;2024-03-23T14:56:02;19.20;58.00
13928;DHT22;7036;50.834;4.718;2024-03-23T14:58:30;19.30;58.90
13928;DHT22;7036;50.834;4.718;2024-03-23T15:01:04;19.20;57.90
13928;DHT22;7036;50.834;4.718;2024-03-23T15:03:31;19.30;58.50
13928;DHT22;7036;50.834;4.718;2024-03-23T15:05:58;19.30;57.80
13928;DHT22;7036;50.834;4.718;2024-03-23T15:08:26;19.30;58.60
13928;DHT22;7036;50.834;4.718;2024-03-23T15:10:53;19.30;58.00
13928;DHT22;7036;50.834;4.718;2024-03-23T15:13:20;19.30;58.10
13928;DHT22;7036;50.834;4.718;2024-03-23T15:15:48;19.30;58.90
13928;DHT22;7036;50.834;4.718;2024-03-23T15:18:16;19.30;59.40
13928;DHT22;7036;50.834;4.718;2024-03-23T15:20:56;19.30;59.00
13928;DHT22;7036;50.834;4.718;2024-03-23T15:23:23;19.30;58.30
13928;DHT22;7036;50.834;4.718;2024-03-23T15:26:00;19.30;58.80
13928;DHT22;7036;50.834;4.718;2024-03-23T15:28:26;19.30;58.20
13928;DHT22;7036;50.834;4.718;2024-03-23T15:31:04;19.30;58.20
13928;DHT22;7036;50.834;4.718;2024-03-23T15:33:32;19.40;58.80
13928;DHT22;7036;50.834;4.718;2024-03-23T15:36:03;19.40;58.80
13928;DHT22;7036;50.834;4.718;2024-03-23T15:38:33;19.30;58.00
13928;DHT22;7036;50.834;4.718;2024-03-23T15:40:59;19.30;58.10
13928;DHT22;7036;50.834;4.718;2024-03-23T15:43:26;19.40;58.10
13928;DHT22;7036;50.834;4.718;2024-03-23T15:45:54;19.40;58.10
13928;DHT22;7036;50.834;4.718;2024-03-23T15:48:22;19.40;58.80
13928;DHT22;7036;50.834;4.718;2024-03-23T15:50:53;19.40;58.10
13928;DHT22;7036;50.834;4.718;2024-03-23T15:53:21;19.40;58.00
13928;DHT22;7036;50.834;4.718;2024-03-23T15:56:00;19.40;58.80
13928;DHT22;7036;50.834;4.718;2024-03-23T15:58:27;19.40;58.70
13928;DHT22;7036;50.834;4.718;2024-03-23T16:01:04;19.40;58.00
13928;DHT22;7036;50.834;4.718;2024-03-23T16:03:32;19.40;58.20
13928;DHT22;7036;50.834;4.718;2024-03-23T16:06:04;19.40;58.00
13928;DHT22;7036;50.834;4.718;2024-03-23T16:08:28;19.40;57.90
13928;DHT22;7036;50.834;4.718;2024-03-23T16:11:05;19.40;58.40
13928;DHT22;7036;50.834;4.718;2024-03-23T16:13:32;19.40;57.70
13928;DHT22;7036;50.834;4.718;2024-03-23T16:16:03;19.40;58.50
13928;DHT22;7036;50.834;4.718;2024-03-23T16:18:36;19.30;58.40
13928;DHT22;7036;50.834;4.718;2024-03-23T16:21:05;19.40;57.80
13928;DHT22;7036;50.834;4.718;2024-03-23T16:23:35;19.30;57.70
13928;DHT22;7036;50.834;4.718;2024-03-23T16:26:01;19.30;58.20
13928;DHT22;7036;50.834;4.718;2024-03-23T16:28:28;19.30;57.40
13928;DHT22;7036;50.834;4.718;2024-03-23T16:30:56;19.20;58.00
13928;DHT22;7036;50.834;4.718;2024-03-23T16:33:23;19.20;58.00
13928;DHT22;7036;50.834;4.718;2024-03-23T16:35:55;19.20;57.60
13928;DHT22;7036;50.834;4.718;2024-03-23T16:38:22;19.20;58.50
13928;DHT22;7036;50.834;4.718;2024-03-23T16:40:55;19.20;57.50
13928;DHT22;7036;50.834;4.718;2024-03-23T16:43:21;19.10;57.30
13928;DHT22;7036;50.834;4.718;2024-03-23T16:46:02;19.20;57.50
13928;DHT22;7036;50.834;4.718;2024-03-23T16:48:28;19.10;57.30
13928;DHT22;7036;50.834;4.718;2024-03-23T16:50:58;19.10;57.40